sensor_id;sensor_type;location;lat;lon;timestamp;P1;durP1;ratioP1;P2;durP2;ratioP2
11211;SDS011;5663;50.864;12.096;2024-02-23T00:02:22;0.73;;;0.73;;
11211;SDS011;5663;50.864;12.096;2024-02-23T00:04:50;0.67;;;0.67;;
11211;SDS011;5663;50.864;12.096;2024-02-23T00:07:18;1.67;;;0.73;;
11211;SDS011;5663;50.864;12.096;2024-02-23T00:09:46;0.97;;;0.63;;
11211;SDS011;5663;50.864;12.096;2024-02-23T00:12:14;0.63;;;0.63;;
11211;SDS011;5663;50.864;12.096;2024-02-23T00:14:41;0.60;;;0.60;;
11211;SDS011;5663;50.864;12.096;2024-02-23T00:17:08;1.73;;;0.60;;
11211;SDS011;5663;50.864;12.096;2024-02-23T00:19:37;1.13;;;0.70;;
11211;SDS011;5663;50.864;12.096;2024-02-23T00:22:06;0.70;;;0.70;;
11211;SDS011;5663;50.864;12.096;2024-02-23T00:24:34;0.70;;;0.70;;
11211;SDS011;5663;50.864;12.096;2024-02-23T00:27:03;1.77;;;0.80;;
11211;SDS011;5663;50.864;12.096;2024-02-23T00:29:31;0.83;;;0.67;;
11211;SDS011;5663;50.864;12.096;2024-02-23T00:31:59;0.40;;;0.40;;
11211;SDS011;5663;50.864;12.096;2024-02-23T00:34:27;1.37;;;0.80;;
11211;SDS011;5663;50.864;12.096;2024-02-23T00:36:56;0.63;;;0.63;;
11211;SDS011;5663;50.864;12.096;2024-02-23T00:39:25;0.90;;;0.77;;
11211;SDS011;5663;50.864;12.096;2024-02-23T00:41:52;0.70;;;0.70;;
11211;SDS011;5663;50.864;12.096;2024-02-23T00:44:21;0.90;;;0.73;;
11211;SDS011;5663;50.864;12.096;2024-02-23T00:46:48;1.13;;;0.80;;
11211;SDS011;5663;50.864;12.096;2024-02-23T00:49:16;1.10;;;0.80;;
11211;SDS011;5663;50.864;12.096;2024-02-23T00:51:44;1.50;;;0.80;;
11211;SDS011;5663;50.864;12.096;2024-02-23T00:54:12;0.80;;;0.80;;
11211;SDS011;5663;50.864;12.096;2024-02-23T00:56:42;1.10;;;0.87;;
11211;SDS011;5663;50.864;12.096;2024-02-23T00:59:11;1.80;;;1.03;;
11211;SDS011;5663;50.864;12.096;2024-02-23T01:01:38;0.90;;;0.90;;
11211;SDS011;5663;50.864;12.096;2024-02-23T01:04:06;1.90;;;0.90;;
11211;SDS011;5663;50.864;12.096;2024-02-23T01:06:33;1.17;;;0.80;;
11211;SDS011;5663;50.864;12.096;2024-02-23T01:09:01;2.07;;;0.90;;
11211;SDS011;5663;50.864;12.096;2024-02-23T01:11:30;0.70;;;0.70;;
11211;SDS011;5663;50.864;12.096;2024-02-23T01:14:00;0.87;;;0.80;;
11211;SDS011;5663;50.864;12.096;2024-02-23T01:16:28;1.13;;;0.77;;
11211;SDS011;5663;50.864;12.096;2024-02-23T01:18:56;0.70;;;0.70;;
11211;SDS011;5663;50.864;12.096;2024-02-23T01:21:23;0.80;;;0.80;;
11211;SDS011;5663;50.864;12.096;2024-02-23T01:23:51;1.27;;;0.70;;
11211;SDS011;5663;50.864;12.096;2024-02-23T01:26:18;3.03;;;0.73;;
11211;SDS011;5663;50.864;12.096;2024-02-23T01:28:45;0.60;;;0.60;;
11211;SDS011;5663;50.864;12.096;2024-02-23T01:31:14;0.70;;;0.70;;
11211;SDS011;5663;50.864;12.096;2024-02-23T01:33:42;1.00;;;0.60;;
11211;SDS011;5663;50.864;12.096;2024-02-23T01:36:10;0.50;;;0.50;;
11211;SDS011;5663;50.864;12.096;2024-02-23T01:38:37;0.40;;;0.40;;
11211;SDS011;5663;50.864;12.096;2024-02-23T01:41:05;0.77;;;0.50;;
11211;SDS011;5663;50.864;12.096;2024-02-23T01:43:32;1.17;;;0.70;;
11211;SDS011;5663;50.864;12.096;2024-02-23T01:49:30;1.23;;;0.60;;
11211;SDS011;5663;50.864;12.096;2024-02-23T01:51:59;0.87;;;0.60;;
11211;SDS011;5663;50.864;12.096;2024-02-23T01:54:27;1.13;;;0.70;;
11211;SDS011;5663;50.864;12.096;2024-02-23T01:56:55;1.70;;;0.73;;
11211;SDS011;5663;50.864;12.096;2024-02-23T01:59:24;0.63;;;0.63;;
11211;SDS011;5663;50.864;12.096;2024-02-23T02:01:52;2.73;;;0.50;;
11211;SDS011;5663;50.864;12.096;2024-02-23T02:04:20;1.03;;;0.43;;
11211;SDS011;5663;50.864;12.096;2024-02-23T02:06:49;0.40;;;0.40;;
11211;SDS011;5663;50.864;12.096;2024-02-23T02:09:17;1.43;;;0.40;;
11211;SDS011;5663;50.864;12.096;2024-02-23T02:11:45;0.30;;;0.30;;
11211;SDS011;5663;50.864;12.096;2024-02-23T02:14:13;2.23;;;0.50;;
11211;SDS011;5663;50.864;12.096;2024-02-23T02:16:41;0.60;;;0.50;;
11211;SDS011;5663;50.864;12.096;2024-02-23T02:19:09;0.80;;;0.50;;
11211;SDS011;5663;50.864;12.096;2024-02-23T02:21:38;0.60;;;0.37;;
11211;SDS011;5663;50.864;12.096;2024-02-23T02:24:09;1.40;;;0.60;;
11211;SDS011;5663;50.864;12.096;2024-02-23T02:26:36;0.87;;;0.50;;
11211;SDS011;5663;50.864;12.096;2024-02-23T02:29:04;0.40;;;0.40;;
11211;SDS011;5663;50.864;12.096;2024-02-23T02:31:33;2.90;;;0.70;;
11211;SDS011;5663;50.864;12.096;2024-02-23T02:34:03;3.33;;;0.50;;
11211;SDS011;5663;50.864;12.096;2024-02-23T02:36:30;0.97;;;0.60;;
11211;SDS011;5663;50.864;12.096;2024-02-23T02:38:56;1.20;;;0.50;;
11211;SDS011;5663;50.864;12.096;2024-02-23T02:41:27;2.47;;;0.40;;
11211;SDS011;5663;50.864;12.096;2024-02-23T02:43:56;1.83;;;0.70;;
11211;SDS011;5663;50.864;12.096;2024-02-23T02:46:24;2.10;;;0.80;;
11211;SDS011;5663;50.864;12.096;2024-02-23T02:48:52;0.60;;;0.60;;
11211;SDS011;5663;50.864;12.096;2024-02-23T02:51:19;2.57;;;0.70;;
11211;SDS011;5663;50.864;12.096;2024-02-23T02:53:47;1.23;;;0.40;;
11211;SDS011;5663;50.864;12.096;2024-02-23T02:56:15;0.57;;;0.50;;
11211;SDS011;5663;50.864;12.096;2024-02-23T02:58:43;3.27;;;1.03;;
11211;SDS011;5663;50.864;12.096;2024-02-23T03:01:11;2.10;;;0.70;;
11211;SDS011;5663;50.864;12.096;2024-02-23T03:03:39;1.40;;;0.50;;
11211;SDS011;5663;50.864;12.096;2024-02-23T03:06:07;1.03;;;0.50;;
11211;SDS011;5663;50.864;12.096;2024-02-23T03:08:35;1.50;;;0.60;;
11211;SDS011;5663;50.864;12.096;2024-02-23T03:11:03;3.77;;;0.70;;
11211;SDS011;5663;50.864;12.096;2024-02-23T03:13:30;1.00;;;0.70;;
11211;SDS011;5663;50.864;12.096;2024-02-23T03:16:00;0.90;;;0.50;;
11211;SDS011;5663;50.864;12.096;2024-02-23T03:18:28;1.33;;;0.63;;
11211;SDS011;5663;50.864;12.096;2024-02-23T03:20:55;0.60;;;0.60;;
11211;SDS011;5663;50.864;12.096;2024-02-23T03:23:22;0.83;;;0.50;;
11211;SDS011;5663;50.864;12.096;2024-02-23T03:25:50;1.13;;;0.60;;
11211;SDS011;5663;50.864;12.096;2024-02-23T03:28:17;1.60;;;0.80;;
11211;SDS011;5663;50.864;12.096;2024-02-23T03:30:45;1.10;;;0.50;;
11211;SDS011;5663;50.864;12.096;2024-02-23T03:33:14;1.40;;;0.60;;
11211;SDS011;5663;50.864;12.096;2024-02-23T03:35:42;1.33;;;0.70;;
11211;SDS011;5663;50.864;12.096;2024-02-23T03:38:09;2.73;;;0.80;;
11211;SDS011;5663;50.864;12.096;2024-02-23T03:40:37;1.83;;;0.60;;
11211;SDS011;5663;50.864;12.096;2024-02-23T03:43:04;0.70;;;0.50;;
11211;SDS011;5663;50.864;12.096;2024-02-23T03:45:32;1.10;;;0.60;;
11211;SDS011;5663;50.864;12.096;2024-02-23T03:47:59;0.87;;;0.60;;
11211;SDS011;5663;50.864;12.096;2024-02-23T03:50:28;1.10;;;0.70;;
11211;SDS011;5663;50.864;12.096;2024-02-23T03:52:56;2.03;;;0.97;;
11211;SDS011;5663;50.864;12.096;2024-02-23T03:55:23;0.83;;;0.60;;
11211;SDS011;5663;50.864;12.096;2024-02-23T03:57:51;1.03;;;0.57;;
11211;SDS011;5663;50.864;12.096;2024-02-23T04:00:20;1.50;;;0.80;;
11211;SDS011;5663;50.864;12.096;2024-02-23T04:02:49;2.40;;;0.70;;
11211;SDS011;5663;50.864;12.096;2024-02-23T04:05:17;0.70;;;0.70;;
11211;SDS011;5663;50.864;12.096;2024-02-23T04:07:46;1.30;;;0.60;;
11211;SDS011;5663;50.864;12.096;2024-02-23T04:10:14;2.43;;;0.53;;
11211;SDS011;5663;50.864;12.096;2024-02-23T04:12:42;2.47;;;0.53;;
11211;SDS011;5663;50.864;12.096;2024-02-23T04:15:10;2.43;;;0.70;;
11211;SDS011;5663;50.864;12.096;2024-02-23T04:17:37;0.70;;;0.50;;
11211;SDS011;5663;50.864;12.096;2024-02-23T04:20:06;1.40;;;0.87;;
11211;SDS011;5663;50.864;12.096;2024-02-23T04:22:34;2.63;;;0.80;;
11211;SDS011;5663;50.864;12.096;2024-02-23T04:25:04;1.23;;;0.67;;
11211;SDS011;5663;50.864;12.096;2024-02-23T04:27:31;0.40;;;0.40;;
11211;SDS011;5663;50.864;12.096;2024-02-23T04:29:58;2.43;;;0.60;;
11211;SDS011;5663;50.864;12.096;2024-02-23T04:32:26;0.70;;;0.57;;
11211;SDS011;5663;50.864;12.096;2024-02-23T04:34:55;1.23;;;0.60;;
11211;SDS011;5663;50.864;12.096;2024-02-23T04:37:22;1.40;;;0.87;;
11211;SDS011;5663;50.864;12.096;2024-02-23T04:39:49;0.73;;;0.60;;
11211;SDS011;5663;50.864;12.096;2024-02-23T04:42:18;5.70;;;0.80;;
11211;SDS011;5663;50.864;12.096;2024-02-23T04:44:45;1.73;;;0.57;;
11211;SDS011;5663;50.864;12.096;2024-02-23T04:47:15;1.03;;;0.60;;
11211;SDS011;5663;50.864;12.096;2024-02-23T04:49:42;1.57;;;0.63;;
11211;SDS011;5663;50.864;12.096;2024-02-23T04:52:09;2.27;;;0.83;;
11211;SDS011;5663;50.864;12.096;2024-02-23T04:54:37;1.70;;;0.63;;
11211;SDS011;5663;50.864;12.096;2024-02-23T04:57:04;2.20;;;0.80;;
11211;SDS011;5663;50.864;12.096;2024-02-23T04:59:33;1.87;;;0.90;;
11211;SDS011;5663;50.864;12.096;2024-02-23T05:02:00;0.87;;;0.63;;
11211;SDS011;5663;50.864;12.096;2024-02-23T05:04:28;3.93;;;1.00;;
11211;SDS011;5663;50.864;12.096;2024-02-23T05:06:55;1.97;;;0.80;;
11211;SDS011;5663;50.864;12.096;2024-02-23T05:09:22;3.47;;;0.90;;
11211;SDS011;5663;50.864;12.096;2024-02-23T05:11:50;2.40;;;0.70;;
11211;SDS011;5663;50.864;12.096;2024-02-23T05:14:18;1.57;;;0.73;;
11211;SDS011;5663;50.864;12.096;2024-02-23T05:16:46;1.67;;;0.87;;
11211;SDS011;5663;50.864;12.096;2024-02-23T05:19:14;1.33;;;0.60;;
11211;SDS011;5663;50.864;12.096;2024-02-23T05:21:43;2.10;;;0.90;;
11211;SDS011;5663;50.864;12.096;2024-02-23T05:24:10;2.53;;;0.83;;
11211;SDS011;5663;50.864;12.096;2024-02-23T05:26:38;1.20;;;0.70;;
11211;SDS011;5663;50.864;12.096;2024-02-23T05:29:05;1.63;;;0.57;;
11211;SDS011;5663;50.864;12.096;2024-02-23T05:31:45;2.73;;;0.63;;
11211;SDS011;5663;50.864;12.096;2024-02-23T05:34:14;3.63;;;0.93;;
11211;SDS011;5663;50.864;12.096;2024-02-23T05:36:42;0.57;;;0.57;;
11211;SDS011;5663;50.864;12.096;2024-02-23T05:39:09;1.20;;;0.80;;
11211;SDS011;5663;50.864;12.096;2024-02-23T05:41:36;0.83;;;0.63;;
11211;SDS011;5663;50.864;12.096;2024-02-23T05:44:04;1.60;;;0.83;;
11211;SDS011;5663;50.864;12.096;2024-02-23T05:46:32;1.97;;;0.53;;
11211;SDS011;5663;50.864;12.096;2024-02-23T05:49:00;1.73;;;0.83;;
11211;SDS011;5663;50.864;12.096;2024-02-23T05:51:29;0.53;;;0.50;;
11211;SDS011;5663;50.864;12.096;2024-02-23T05:53:56;1.90;;;0.63;;
11211;SDS011;5663;50.864;12.096;2024-02-23T05:56:23;4.17;;;0.80;;
11211;SDS011;5663;50.864;12.096;2024-02-23T05:58:51;2.60;;;0.90;;
11211;SDS011;5663;50.864;12.096;2024-02-23T06:01:18;2.47;;;1.00;;
11211;SDS011;5663;50.864;12.096;2024-02-23T06:03:46;1.13;;;0.77;;
11211;SDS011;5663;50.864;12.096;2024-02-23T06:06:13;2.70;;;1.00;;
11211;SDS011;5663;50.864;12.096;2024-02-23T06:08:42;20.43;;;1.80;;
11211;SDS011;5663;50.864;12.096;2024-02-23T06:11:10;1.73;;;0.80;;
11211;SDS011;5663;50.864;12.096;2024-02-23T06:13:38;2.97;;;0.57;;
11211;SDS011;5663;50.864;12.096;2024-02-23T06:16:09;0.50;;;0.37;;
11211;SDS011;5663;50.864;12.096;2024-02-23T06:18:36;1.23;;;0.60;;
11211;SDS011;5663;50.864;12.096;2024-02-23T06:21:13;3.93;;;0.53;;
11211;SDS011;5663;50.864;12.096;2024-02-23T06:23:42;2.07;;;0.70;;
11211;SDS011;5663;50.864;12.096;2024-02-23T06:26:09;1.10;;;0.60;;
11211;SDS011;5663;50.864;12.096;2024-02-23T06:28:37;3.53;;;1.00;;
11211;SDS011;5663;50.864;12.096;2024-02-23T06:31:07;2.57;;;0.87;;
11211;SDS011;5663;50.864;12.096;2024-02-23T06:33:34;3.43;;;0.80;;
11211;SDS011;5663;50.864;12.096;2024-02-23T06:36:02;1.10;;;0.57;;
11211;SDS011;5663;50.864;12.096;2024-02-23T06:38:31;1.93;;;0.50;;
11211;SDS011;5663;50.864;12.096;2024-02-23T06:41:00;1.00;;;0.70;;
11211;SDS011;5663;50.864;12.096;2024-02-23T06:43:28;0.67;;;0.50;;
11211;SDS011;5663;50.864;12.096;2024-02-23T06:45:55;0.93;;;0.50;;
11211;SDS011;5663;50.864;12.096;2024-02-23T06:48:24;4.00;;;0.80;;
11211;SDS011;5663;50.864;12.096;2024-02-23T06:50:51;1.20;;;0.67;;
11211;SDS011;5663;50.864;12.096;2024-02-23T06:53:21;1.80;;;0.90;;
11211;SDS011;5663;50.864;12.096;2024-02-23T06:55:48;1.37;;;0.50;;
11211;SDS011;5663;50.864;12.096;2024-02-23T06:58:18;1.13;;;0.60;;
11211;SDS011;5663;50.864;12.096;2024-02-23T07:00:46;1.50;;;0.70;;
11211;SDS011;5663;50.864;12.096;2024-02-23T07:03:13;1.43;;;0.80;;
11211;SDS011;5663;50.864;12.096;2024-02-23T07:05:42;1.77;;;0.73;;
11211;SDS011;5663;50.864;12.096;2024-02-23T07:08:10;3.27;;;0.90;;
11211;SDS011;5663;50.864;12.096;2024-02-23T07:10:39;4.00;;;1.03;;
11211;SDS011;5663;50.864;12.096;2024-02-23T07:13:07;1.63;;;0.70;;
11211;SDS011;5663;50.864;12.096;2024-02-23T07:15:36;3.60;;;0.90;;
11211;SDS011;5663;50.864;12.096;2024-02-23T07:18:04;3.83;;;0.70;;
11211;SDS011;5663;50.864;12.096;2024-02-23T07:20:35;1.57;;;0.80;;
11211;SDS011;5663;50.864;12.096;2024-02-23T07:23:03;0.80;;;0.70;;
11211;SDS011;5663;50.864;12.096;2024-02-23T07:25:30;1.87;;;1.03;;
11211;SDS011;5663;50.864;12.096;2024-02-23T07:27:59;6.23;;;1.33;;
11211;SDS011;5663;50.864;12.096;2024-02-23T07:30:27;2.60;;;0.93;;
11211;SDS011;5663;50.864;12.096;2024-02-23T07:32:57;2.77;;;1.10;;
11211;SDS011;5663;50.864;12.096;2024-02-23T07:35:38;3.73;;;1.37;;
11211;SDS011;5663;50.864;12.096;2024-02-23T07:38:06;2.40;;;0.90;;
11211;SDS011;5663;50.864;12.096;2024-02-23T07:40:33;1.33;;;0.70;;
11211;SDS011;5663;50.864;12.096;2024-02-23T07:43:01;1.23;;;0.87;;
11211;SDS011;5663;50.864;12.096;2024-02-23T07:45:29;1.30;;;0.87;;
11211;SDS011;5663;50.864;12.096;2024-02-23T07:47:58;2.40;;;1.00;;
11211;SDS011;5663;50.864;12.096;2024-02-23T07:50:26;1.20;;;0.63;;
11211;SDS011;5663;50.864;12.096;2024-02-23T07:52:53;3.63;;;1.20;;
11211;SDS011;5663;50.864;12.096;2024-02-23T07:55:20;2.30;;;0.90;;
11211;SDS011;5663;50.864;12.096;2024-02-23T07:57:48;1.50;;;0.90;;
11211;SDS011;5663;50.864;12.096;2024-02-23T08:00:15;3.03;;;0.87;;
11211;SDS011;5663;50.864;12.096;2024-02-23T08:02:43;3.03;;;0.90;;
11211;SDS011;5663;50.864;12.096;2024-02-23T08:05:13;3.40;;;1.73;;
11211;SDS011;5663;50.864;12.096;2024-02-23T08:07:40;2.37;;;1.43;;
11211;SDS011;5663;50.864;12.096;2024-02-23T08:10:08;4.80;;;1.50;;
11211;SDS011;5663;50.864;12.096;2024-02-23T08:12:37;2.60;;;1.80;;
11211;SDS011;5663;50.864;12.096;2024-02-23T08:15:06;6.17;;;1.87;;
11211;SDS011;5663;50.864;12.096;2024-02-23T08:17:34;7.27;;;1.60;;
11211;SDS011;5663;50.864;12.096;2024-02-23T08:20:01;5.70;;;1.63;;
11211;SDS011;5663;50.864;12.096;2024-02-23T08:22:31;3.20;;;1.43;;
11211;SDS011;5663;50.864;12.096;2024-02-23T08:24:58;2.90;;;1.20;;
11211;SDS011;5663;50.864;12.096;2024-02-23T08:27:26;1.30;;;1.10;;
11211;SDS011;5663;50.864;12.096;2024-02-23T08:29:53;1.77;;;0.80;;
11211;SDS011;5663;50.864;12.096;2024-02-23T08:32:20;1.63;;;1.13;;
11211;SDS011;5663;50.864;12.096;2024-02-23T08:34:47;4.37;;;1.53;;
11211;SDS011;5663;50.864;12.096;2024-02-23T08:37:16;2.53;;;1.30;;
11211;SDS011;5663;50.864;12.096;2024-02-23T08:39:45;2.47;;;1.20;;
11211;SDS011;5663;50.864;12.096;2024-02-23T08:42:12;7.00;;;1.30;;
11211;SDS011;5663;50.864;12.096;2024-02-23T08:44:40;1.47;;;0.90;;
11211;SDS011;5663;50.864;12.096;2024-02-23T08:47:10;1.57;;;1.10;;
11211;SDS011;5663;50.864;12.096;2024-02-23T08:49:39;2.50;;;1.03;;
11211;SDS011;5663;50.864;12.096;2024-02-23T08:52:06;3.30;;;1.17;;
11211;SDS011;5663;50.864;12.096;2024-02-23T08:54:34;1.67;;;0.90;;
11211;SDS011;5663;50.864;12.096;2024-02-23T08:57:03;3.00;;;1.00;;
11211;SDS011;5663;50.864;12.096;2024-02-23T08:59:30;2.90;;;1.23;;
11211;SDS011;5663;50.864;12.096;2024-02-23T09:01:58;4.63;;;0.80;;
11211;SDS011;5663;50.864;12.096;2024-02-23T09:04:25;1.53;;;0.90;;
11211;SDS011;5663;50.864;12.096;2024-02-23T09:06:53;5.57;;;1.03;;
11211;SDS011;5663;50.864;12.096;2024-02-23T09:09:21;1.60;;;1.20;;
11211;SDS011;5663;50.864;12.096;2024-02-23T09:11:49;3.03;;;1.10;;
11211;SDS011;5663;50.864;12.096;2024-02-23T09:14:18;4.10;;;1.30;;
11211;SDS011;5663;50.864;12.096;2024-02-23T09:16:45;4.13;;;1.30;;
11211;SDS011;5663;50.864;12.096;2024-02-23T09:19:16;1.70;;;1.13;;
11211;SDS011;5663;50.864;12.096;2024-02-23T09:21:44;3.40;;;1.30;;
11211;SDS011;5663;50.864;12.096;2024-02-23T09:24:11;4.03;;;1.00;;
11211;SDS011;5663;50.864;12.096;2024-02-23T09:26:39;2.30;;;0.90;;
11211;SDS011;5663;50.864;12.096;2024-02-23T09:29:10;2.43;;;0.97;;
11211;SDS011;5663;50.864;12.096;2024-02-23T09:31:39;2.90;;;1.13;;
11211;SDS011;5663;50.864;12.096;2024-02-23T09:34:06;1.97;;;0.60;;
11211;SDS011;5663;50.864;12.096;2024-02-23T09:36:36;2.53;;;0.80;;
11211;SDS011;5663;50.864;12.096;2024-02-23T09:39:04;3.23;;;0.97;;
11211;SDS011;5663;50.864;12.096;2024-02-23T09:41:32;1.50;;;0.70;;
11211;SDS011;5663;50.864;12.096;2024-02-23T09:44:01;1.33;;;0.80;;
11211;SDS011;5663;50.864;12.096;2024-02-23T09:46:28;4.53;;;1.20;;
11211;SDS011;5663;50.864;12.096;2024-02-23T09:48:58;5.43;;;1.10;;
11211;SDS011;5663;50.864;12.096;2024-02-23T09:51:26;1.53;;;0.80;;
11211;SDS011;5663;50.864;12.096;2024-02-23T09:53:55;8.97;;;1.10;;
11211;SDS011;5663;50.864;12.096;2024-02-23T09:56:32;6.07;;;1.27;;
11211;SDS011;5663;50.864;12.096;2024-02-23T09:59:04;6.20;;;1.20;;
11211;SDS011;5663;50.864;12.096;2024-02-23T10:01:32;2.27;;;1.10;;
11211;SDS011;5663;50.864;12.096;2024-02-23T10:04:03;2.93;;;1.20;;
11211;SDS011;5663;50.864;12.096;2024-02-23T10:06:33;2.73;;;1.00;;
11211;SDS011;5663;50.864;12.096;2024-02-23T10:09:01;5.37;;;2.10;;
11211;SDS011;5663;50.864;12.096;2024-02-23T10:11:30;4.00;;;0.97;;
11211;SDS011;5663;50.864;12.096;2024-02-23T10:13:57;4.87;;;1.27;;
11211;SDS011;5663;50.864;12.096;2024-02-23T10:16:25;5.33;;;1.90;;
11211;SDS011;5663;50.864;12.096;2024-02-23T10:18:52;2.70;;;1.20;;
11211;SDS011;5663;50.864;12.096;2024-02-23T10:21:22;2.67;;;1.73;;
11211;SDS011;5663;50.864;12.096;2024-02-23T10:23:51;2.73;;;1.00;;
11211;SDS011;5663;50.864;12.096;2024-02-23T10:26:18;1.40;;;0.90;;
11211;SDS011;5663;50.864;12.096;2024-02-23T10:28:48;2.97;;;0.93;;
11211;SDS011;5663;50.864;12.096;2024-02-23T10:31:16;2.30;;;1.17;;
11211;SDS011;5663;50.864;12.096;2024-02-23T10:33:44;2.40;;;1.20;;
11211;SDS011;5663;50.864;12.096;2024-02-23T10:36:14;2.17;;;1.03;;
11211;SDS011;5663;50.864;12.096;2024-02-23T10:38:44;1.73;;;1.17;;
11211;SDS011;5663;50.864;12.096;2024-02-23T10:41:12;2.17;;;0.83;;
11211;SDS011;5663;50.864;12.096;2024-02-23T10:43:41;4.43;;;1.57;;
11211;SDS011;5663;50.864;12.096;2024-02-23T10:46:09;5.47;;;1.30;;
11211;SDS011;5663;50.864;12.096;2024-02-23T10:48:39;2.90;;;1.40;;
11211;SDS011;5663;50.864;12.096;2024-02-23T10:51:06;3.67;;;1.27;;
11211;SDS011;5663;50.864;12.096;2024-02-23T10:53:34;3.47;;;1.20;;
11211;SDS011;5663;50.864;12.096;2024-02-23T10:56:05;4.43;;;1.03;;
11211;SDS011;5663;50.864;12.096;2024-02-23T10:58:33;3.00;;;1.13;;
11211;SDS011;5663;50.864;12.096;2024-02-23T11:01:00;3.50;;;0.97;;
11211;SDS011;5663;50.864;12.096;2024-02-23T11:03:28;2.13;;;0.90;;
11211;SDS011;5663;50.864;12.096;2024-02-23T11:05:57;1.60;;;1.00;;
11211;SDS011;5663;50.864;12.096;2024-02-23T11:08:24;1.73;;;1.20;;
11211;SDS011;5663;50.864;12.096;2024-02-23T11:10:55;2.93;;;1.40;;
11211;SDS011;5663;50.864;12.096;2024-02-23T11:13:32;3.77;;;1.20;;
11211;SDS011;5663;50.864;12.096;2024-02-23T11:16:02;2.37;;;1.30;;
11211;SDS011;5663;50.864;12.096;2024-02-23T11:18:30;3.13;;;0.93;;
11211;SDS011;5663;50.864;12.096;2024-02-23T11:20:59;5.03;;;1.30;;
11211;SDS011;5663;50.864;12.096;2024-02-23T11:23:27;2.47;;;1.10;;
11211;SDS011;5663;50.864;12.096;2024-02-23T11:26:05;3.10;;;1.37;;
11211;SDS011;5663;50.864;12.096;2024-02-23T11:28:43;2.97;;;0.97;;
11211;SDS011;5663;50.864;12.096;2024-02-23T11:31:11;3.30;;;0.90;;
11211;SDS011;5663;50.864;12.096;2024-02-23T11:33:40;3.97;;;1.37;;
11211;SDS011;5663;50.864;12.096;2024-02-23T11:36:08;2.70;;;1.50;;
11211;SDS011;5663;50.864;12.096;2024-02-23T11:38:35;5.70;;;1.60;;
11211;SDS011;5663;50.864;12.096;2024-02-23T11:41:03;4.73;;;1.50;;
11211;SDS011;5663;50.864;12.096;2024-02-23T11:43:32;1.93;;;1.13;;
11211;SDS011;5663;50.864;12.096;2024-02-23T11:46:03;2.83;;;1.10;;
11211;SDS011;5663;50.864;12.096;2024-02-23T11:48:30;2.10;;;1.20;;
11211;SDS011;5663;50.864;12.096;2024-02-23T11:50:58;2.03;;;1.10;;
11211;SDS011;5663;50.864;12.096;2024-02-23T11:53:26;3.00;;;1.40;;
11211;SDS011;5663;50.864;12.096;2024-02-23T11:55:53;2.80;;;1.10;;
11211;SDS011;5663;50.864;12.096;2024-02-23T11:58:20;2.00;;;1.00;;
11211;SDS011;5663;50.864;12.096;2024-02-23T12:00:48;2.93;;;1.10;;
11211;SDS011;5663;50.864;12.096;2024-02-23T12:03:19;3.03;;;0.90;;
11211;SDS011;5663;50.864;12.096;2024-02-23T12:05:49;1.13;;;0.80;;
11211;SDS011;5663;50.864;12.096;2024-02-23T12:08:16;1.27;;;1.00;;
11211;SDS011;5663;50.864;12.096;2024-02-23T12:10:44;3.80;;;1.20;;
11211;SDS011;5663;50.864;12.096;2024-02-23T12:13:11;4.50;;;1.40;;
11211;SDS011;5663;50.864;12.096;2024-02-23T12:15:38;5.50;;;1.17;;
11211;SDS011;5663;50.864;12.096;2024-02-23T12:18:06;2.00;;;0.97;;
11211;SDS011;5663;50.864;12.096;2024-02-23T12:20:36;6.50;;;1.13;;
11211;SDS011;5663;50.864;12.096;2024-02-23T12:23:04;5.37;;;1.40;;
11211;SDS011;5663;50.864;12.096;2024-02-23T12:25:32;1.93;;;0.93;;
11211;SDS011;5663;50.864;12.096;2024-02-23T12:28:00;5.10;;;1.00;;
11211;SDS011;5663;50.864;12.096;2024-02-23T12:30:29;2.87;;;1.30;;
11211;SDS011;5663;50.864;12.096;2024-02-23T12:33:05;2.20;;;1.20;;
11211;SDS011;5663;50.864;12.096;2024-02-23T12:35:33;4.27;;;1.53;;
11211;SDS011;5663;50.864;12.096;2024-02-23T12:38:02;4.73;;;1.67;;
11211;SDS011;5663;50.864;12.096;2024-02-23T12:40:30;2.83;;;1.50;;
11211;SDS011;5663;50.864;12.096;2024-02-23T12:42:57;9.83;;;1.87;;
11211;SDS011;5663;50.864;12.096;2024-02-23T12:45:25;5.90;;;1.30;;
11211;SDS011;5663;50.864;12.096;2024-02-23T12:47:53;2.73;;;1.03;;
11211;SDS011;5663;50.864;12.096;2024-02-23T12:50:21;1.63;;;1.00;;
11211;SDS011;5663;50.864;12.096;2024-02-23T12:52:49;2.13;;;0.90;;
11211;SDS011;5663;50.864;12.096;2024-02-23T12:55:21;6.47;;;1.67;;
11211;SDS011;5663;50.864;12.096;2024-02-23T12:57:50;10.10;;;1.20;;
11211;SDS011;5663;50.864;12.096;2024-02-23T13:00:18;2.93;;;1.30;;
11211;SDS011;5663;50.864;12.096;2024-02-23T13:02:46;4.27;;;1.70;;
11211;SDS011;5663;50.864;12.096;2024-02-23T13:05:14;3.27;;;1.30;;
11211;SDS011;5663;50.864;12.096;2024-02-23T13:07:42;2.03;;;0.83;;
11211;SDS011;5663;50.864;12.096;2024-02-23T13:10:10;1.47;;;1.00;;
11211;SDS011;5663;50.864;12.096;2024-02-23T13:12:39;1.83;;;1.00;;
11211;SDS011;5663;50.864;12.096;2024-02-23T13:15:08;2.43;;;0.83;;
11211;SDS011;5663;50.864;12.096;2024-02-23T13:17:36;3.57;;;1.13;;
11211;SDS011;5663;50.864;12.096;2024-02-23T13:20:24;7.30;;;1.37;;
11211;SDS011;5663;50.864;12.096;2024-02-23T13:22:53;1.77;;;0.87;;
11211;SDS011;5663;50.864;12.096;2024-02-23T13:25:22;3.93;;;1.07;;
11211;SDS011;5663;50.864;12.096;2024-02-23T13:27:52;2.17;;;1.10;;
11211;SDS011;5663;50.864;12.096;2024-02-23T13:30:20;4.47;;;1.17;;
11211;SDS011;5663;50.864;12.096;2024-02-23T13:32:48;5.10;;;1.10;;
11211;SDS011;5663;50.864;12.096;2024-02-23T13:35:16;2.67;;;0.97;;
11211;SDS011;5663;50.864;12.096;2024-02-23T13:37:43;2.03;;;1.10;;
11211;SDS011;5663;50.864;12.096;2024-02-23T13:40:12;2.13;;;1.20;;
11211;SDS011;5663;50.864;12.096;2024-02-23T13:42:40;1.20;;;1.00;;
11211;SDS011;5663;50.864;12.096;2024-02-23T13:45:09;4.53;;;1.10;;
11211;SDS011;5663;50.864;12.096;2024-02-23T13:47:41;5.53;;;1.07;;
11211;SDS011;5663;50.864;12.096;2024-02-23T13:50:10;2.37;;;1.40;;
11211;SDS011;5663;50.864;12.096;2024-02-23T13:52:38;2.07;;;1.00;;
11211;SDS011;5663;50.864;12.096;2024-02-23T13:55:07;6.07;;;1.30;;
11211;SDS011;5663;50.864;12.096;2024-02-23T13:57:35;3.30;;;1.20;;
11211;SDS011;5663;50.864;12.096;2024-02-23T14:00:03;3.20;;;1.43;;
11211;SDS011;5663;50.864;12.096;2024-02-23T14:02:34;3.37;;;1.20;;
11211;SDS011;5663;50.864;12.096;2024-02-23T14:05:03;3.93;;;1.07;;
11211;SDS011;5663;50.864;12.096;2024-02-23T14:07:33;4.40;;;1.63;;
11211;SDS011;5663;50.864;12.096;2024-02-23T14:10:02;2.97;;;1.30;;
11211;SDS011;5663;50.864;12.096;2024-02-23T14:12:30;7.40;;;1.60;;
11211;SDS011;5663;50.864;12.096;2024-02-23T14:14:59;2.00;;;1.03;;
11211;SDS011;5663;50.864;12.096;2024-02-23T14:17:28;3.53;;;1.50;;
11211;SDS011;5663;50.864;12.096;2024-02-23T14:19:59;10.17;;;2.27;;
11211;SDS011;5663;50.864;12.096;2024-02-23T14:22:29;3.23;;;1.67;;
11211;SDS011;5663;50.864;12.096;2024-02-23T14:25:02;5.53;;;1.50;;
11211;SDS011;5663;50.864;12.096;2024-02-23T14:28:04;4.53;;;1.87;;
11211;SDS011;5663;50.864;12.096;2024-02-23T14:30:50;4.73;;;1.37;;
11211;SDS011;5663;50.864;12.096;2024-02-23T14:33:19;4.57;;;1.80;;
11211;SDS011;5663;50.864;12.096;2024-02-23T14:35:51;2.87;;;1.60;;
11211;SDS011;5663;50.864;12.096;2024-02-23T14:38:18;5.27;;;2.00;;
11211;SDS011;5663;50.864;12.096;2024-02-23T14:40:46;5.07;;;1.77;;
11211;SDS011;5663;50.864;12.096;2024-02-23T14:43:15;8.97;;;2.33;;
11211;SDS011;5663;50.864;12.096;2024-02-23T14:46:01;3.03;;;1.30;;
11211;SDS011;5663;50.864;12.096;2024-02-23T14:48:47;4.00;;;1.80;;
11211;SDS011;5663;50.864;12.096;2024-02-23T14:51:16;2.23;;;1.27;;
11211;SDS011;5663;50.864;12.096;2024-02-23T14:53:47;1.90;;;1.00;;
11211;SDS011;5663;50.864;12.096;2024-02-23T14:56:33;2.10;;;1.30;;
11211;SDS011;5663;50.864;12.096;2024-02-23T14:59:02;3.77;;;1.50;;
11211;SDS011;5663;50.864;12.096;2024-02-23T15:01:29;4.10;;;1.80;;